createdAt,value
2019-01-16T00:00:17.412Z,87.92
2019-01-16T00:02:46.412Z,87.86
2019-01-16T00:05:15.561Z,88.04
2019-01-16T00:07:41.625Z,88.09
2019-01-16T00:10:12.599Z,87.88
2019-01-16T00:12:53.694Z,87.81
2019-01-16T00:15:19.764Z,87.76
2019-01-16T00:18:01.991Z,87.57
2019-01-16T00:20:31.023Z,87.45
2019-01-16T00:23:12.703Z,87.38
2019-01-16T00:25:38.797Z,87.38
2019-01-16T00:28:22.806Z,87.24
2019-01-16T00:30:48.886Z,87.37
2019-01-16T00:33:17.818Z,87.07
2019-01-16T00:35:46.636Z,87.34
2019-01-16T00:38:15.728Z,87.46
2019-01-16T00:40:50.443Z,87.36
2019-01-16T00:43:16.497Z,87.31
2019-01-16T00:45:48.567Z,87.26
2019-01-16T00:48:24.668Z,87.18
2019-01-16T00:50:50.740Z,87.26
2019-01-16T00:53:19.723Z,87.40
2019-01-16T00:55:51.464Z,87.27
2019-01-16T00:58:23.271Z,86.94
2019-01-16T01:00:49.300Z,86.97
2019-01-16T01:03:27.370Z,86.78
2019-01-16T01:06:09.621Z,86.48
2019-01-16T01:08:50.575Z,86.13
2019-01-16T01:11:16.690Z,85.91
2019-01-16T01:13:42.746Z,85.86
2019-01-16T01:16:11.469Z,85.62
2019-01-16T01:18:46.302Z,85.45
2019-01-16T01:21:12.424Z,85.15
2019-01-16T01:23:41.169Z,84.92
2019-01-16T01:26:09.698Z,85.16
2019-01-16T01:28:35.732Z,84.88
2019-01-16T01:31:17.964Z,84.63
2019-01-16T01:34:00.260Z,84.32
2019-01-16T01:36:42.509Z,84.48
2019-01-16T01:39:26.623Z,84.31
2019-01-16T01:42:08.854Z,84.05
2019-01-16T01:44:43.767Z,83.96
2019-01-16T01:47:24.970Z,83.97
2019-01-16T01:49:54.027Z,84.15
2019-01-16T01:52:22.968Z,83.63
2019-01-16T01:54:57.990Z,84.05
2019-01-16T01:57:30.046Z,84.31
2019-01-16T02:00:02.119Z,84.27
2019-01-16T02:02:46.268Z,84.54
2019-01-16T02:05:24.383Z,84.64
2019-01-16T02:08:06.591Z,85.24
2019-01-16T02:10:32.663Z,85.07
2019-01-16T02:13:10.579Z,85.21
2019-01-16T02:15:36.634Z,84.72
2019-01-16T02:18:02.687Z,84.98
2019-01-16T02:20:28.751Z,85.16
2019-01-16T02:23:11.181Z,84.72
2019-01-16T02:25:49.273Z,84.16
2019-01-16T02:28:24.096Z,84.44
2019-01-16T02:30:50.166Z,84.85
2019-01-16T02:33:18.968Z,84.81
2019-01-16T02:35:53.987Z,84.43
2019-01-16T02:38:22.966Z,84.93
2019-01-16T02:40:49.040Z,85.03
2019-01-16T02:43:18.068Z,84.81
2019-01-16T02:45:49.812Z,84.75
2019-01-16T02:48:27.916Z,84.36
2019-01-16T02:50:56.676Z,83.76
2019-01-16T02:53:38.757Z,83.35
2019-01-16T02:56:21.033Z,83.24
2019-01-16T02:58:47.072Z,82.88
2019-01-16T03:01:25.127Z,83.68
2019-01-16T03:04:00.130Z,83.35
2019-01-16T03:06:34.902Z,83.32
2019-01-16T03:09:17.248Z,83.19
2019-01-16T03:11:48.970Z,82.80
2019-01-16T03:14:17.680Z,82.95
2019-01-16T03:16:52.799Z,82.98
2019-01-16T03:19:18.842Z,82.69
2019-01-16T03:21:44.879Z,82.02
2019-01-16T03:24:19.621Z,82.37
2019-01-16T03:27:03.757Z,81.94
2019-01-16T03:29:41.627Z,81.50
2019-01-16T03:32:13.466Z,81.83
2019-01-16T03:34:45.458Z,81.81
2019-01-16T03:37:20.246Z,81.67
2019-01-16T03:39:52.306Z,82.08
2019-01-16T03:42:34.280Z,81.56
2019-01-16T03:45:00.334Z,80.99
2019-01-16T03:47:34.871Z,81.17
2019-01-16T03:50:17.104Z,81.60
2019-01-16T03:52:59.280Z,81.34
2019-01-16T03:55:40.193Z,81.62
2019-01-16T03:58:22.285Z,81.28
2019-01-16T04:00:51.165Z,81.26
2019-01-16T04:03:29.227Z,81.76
2019-01-16T04:06:11.486Z,81.88
2019-01-16T04:08:37.528Z,81.54
2019-01-16T04:11:03.588Z,81.33
2019-01-16T04:13:32.549Z,81.54
2019-01-16T04:16:01.534Z,81.35
2019-01-16T04:18:27.604Z,81.19
2019-01-16T04:20:53.655Z,81.34
2019-01-16T04:23:25.629Z,81.58
2019-01-16T04:25:57.448Z,81.70
2019-01-16T04:28:23.519Z,81.34
2019-01-16T04:30:49.573Z,81.32
2019-01-16T04:33:18.314Z,81.81
2019-01-16T04:36:00.352Z,81.27
2019-01-16T04:38:29.337Z,81.46
2019-01-16T04:40:55.382Z,81.66
2019-01-16T04:43:21.460Z,81.58
2019-01-16T04:46:03.446Z,81.25
2019-01-16T04:48:29.487Z,81.07
2019-01-16T04:51:07.537Z,81.52
2019-01-16T04:53:45.465Z,81.41
2019-01-16T04:56:11.515Z,81.27
2019-01-16T04:58:37.553Z,80.80
2019-01-16T05:01:03.617Z,81.03
2019-01-16T05:03:29.649Z,80.78
2019-01-16T05:05:55.727Z,81.10
2019-01-16T05:08:33.761Z,80.83
2019-01-16T05:11:05.510Z,81.24
2019-01-16T05:13:31.543Z,81.47
2019-01-16T05:15:57.598Z,81.01
2019-01-16T05:18:26.395Z,81.30
2019-01-16T05:20:55.390Z,81.45
2019-01-16T05:23:21.446Z,81.52
2019-01-16T05:25:56.173Z,81.43
2019-01-16T05:28:38.291Z,81.64
2019-01-16T05:31:10.289Z,81.50
2019-01-16T05:33:36.366Z,81.63
2019-01-16T05:36:11.537Z,82.16
2019-01-16T05:38:49.691Z,81.90
2019-01-16T05:41:15.726Z,81.91
2019-01-16T05:43:41.759Z,81.80
2019-01-16T05:46:16.754Z,82.30
2019-01-16T05:48:57.461Z,82.30
2019-01-16T05:51:41.243Z,82.15
2019-01-16T05:54:23.521Z,81.79
2019-01-16T05:57:07.465Z,82.36
2019-01-16T05:59:33.508Z,82.48
2019-01-16T06:01:59.572Z,81.96
2019-01-16T06:04:28.283Z,82.13
2019-01-16T06:07:10.079Z,82.50
2019-01-16T06:09:36.107Z,82.72
2019-01-16T06:12:18.198Z,82.32
2019-01-16T06:14:53.205Z,82.30
2019-01-16T06:17:22.208Z,82.26
2019-01-16T06:19:54.319Z,82.41
2019-01-16T06:22:26.330Z,82.00
2019-01-16T06:24:52.382Z,81.79
2019-01-16T06:27:21.096Z,81.58
2019-01-16T06:29:52.969Z,81.95
2019-01-16T06:32:21.780Z,82.14
2019-01-16T06:34:53.752Z,81.74
2019-01-16T06:37:25.833Z,81.83
2019-01-16T06:40:06.990Z,81.39
2019-01-16T06:42:38.552Z,81.45
2019-01-16T06:45:04.618Z,81.41
2019-01-16T06:47:30.656Z,81.30
2019-01-16T06:50:01.861Z,80.83
2019-01-16T06:52:35.894Z,80.55
2019-01-16T06:55:18.099Z,80.09
2019-01-16T06:57:46.594Z,79.86
2019-01-16T07:00:24.007Z,79.88
2019-01-16T07:03:05.819Z,79.68
2019-01-16T07:05:31.887Z,79.54
2019-01-16T07:07:57.927Z,79.55
2019-01-16T07:10:42.181Z,79.39
2019-01-16T07:13:24.163Z,79.28
2019-01-16T07:15:50.227Z,79.33
2019-01-16T07:18:32.188Z,78.84
2019-01-16T07:21:13.092Z,79.05
2019-01-16T07:23:39.125Z,79.11
2019-01-16T07:26:05.157Z,78.07
2019-01-16T07:28:33.892Z,78.60
2019-01-16T07:31:08.699Z,79.03
2019-01-16T07:33:40.399Z,78.84
2019-01-16T07:36:12.225Z,78.79
2019-01-16T07:38:54.467Z,79.53
2019-01-16T07:41:38.662Z,78.94
2019-01-16T07:44:04.749Z,78.76
2019-01-16T07:46:30.778Z,78.97
2019-01-16T07:48:57.082Z,78.89
2019-01-16T07:51:41.218Z,79.19
2019-01-16T07:54:23.033Z,78.62
2019-01-16T07:56:57.951Z,78.65
2019-01-16T07:59:40.079Z,78.61
2019-01-16T08:02:06.616Z,78.65
2019-01-16T08:04:32.634Z,78.12
2019-01-16T08:07:04.636Z,78.12
2019-01-16T08:09:42.514Z,78.36
2019-01-16T08:12:08.555Z,78.36
2019-01-16T08:14:52.721Z,78.57
2019-01-16T08:17:36.801Z,78.14
2019-01-16T08:20:24.841Z,77.68
2019-01-16T08:22:49.370Z,77.07
2019-01-16T08:25:15.481Z,77.62
2019-01-16T08:27:53.471Z,77.40
2019-01-16T08:30:19.517Z,77.61
2019-01-16T08:32:45.585Z,77.76
2019-01-16T08:35:20.875Z,77.41
2019-01-16T08:37:52.720Z,77.19
2019-01-16T08:40:34.770Z,76.95
2019-01-16T08:43:06.757Z,76.55
2019-01-16T08:45:35.464Z,76.68
2019-01-16T08:48:01.513Z,76.59
2019-01-16T08:50:32.579Z,76.35
2019-01-16T08:52:58.320Z,76.61
2019-01-16T08:55:40.583Z,76.64
2019-01-16T08:58:06.612Z,76.33
2019-01-16T09:00:47.551Z,76.38
2019-01-16T09:03:16.496Z,76.27
2019-01-16T09:05:45.469Z,76.18
2019-01-16T09:08:14.424Z,76.26
2019-01-16T09:10:40.634Z,76.15
2019-01-16T09:13:22.676Z,76.49
2019-01-16T09:15:48.736Z,75.95
2019-01-16T09:18:20.841Z,76.07
2019-01-16T09:20:55.730Z,76.05
2019-01-16T09:23:21.777Z,75.82
2019-01-16T09:25:47.830Z,75.89
2019-01-16T09:28:13.894Z,75.06
2019-01-16T09:30:42.615Z,75.76
2019-01-16T09:33:14.626Z,75.53
2019-01-16T09:35:46.720Z,75.31
2019-01-16T09:38:27.645Z,74.95
2019-01-16T09:41:09.750Z,75.51
2019-01-16T09:43:38.426Z,75.22
2019-01-16T09:46:10.680Z,75.63
2019-01-16T09:48:36.716Z,75.76
2019-01-16T09:51:02.777Z,75.69
2019-01-16T09:53:28.802Z,75.72
2019-01-16T09:56:00.527Z,75.97
2019-01-16T09:58:26.571Z,75.73
2019-01-16T10:01:04.685Z,75.83
2019-01-16T10:03:30.722Z,75.84
2019-01-16T10:05:56.774Z,76.10
2019-01-16T10:08:34.611Z,76.31
2019-01-16T10:11:15.529Z,76.66
2019-01-16T10:13:44.123Z,77.06
2019-01-16T10:16:15.859Z,77.25
2019-01-16T10:18:41.890Z,78.06
2019-01-16T10:21:13.453Z,77.82
2019-01-16T10:23:54.571Z,77.64
2019-01-16T10:26:20.603Z,77.42
2019-01-16T10:28:55.488Z,77.87
2019-01-16T10:31:24.371Z,77.85
2019-01-16T10:33:59.394Z,78.20
2019-01-16T10:36:25.417Z,78.38
2019-01-16T10:38:54.394Z,78.60
2019-01-16T10:41:23.393Z,78.68
2019-01-16T10:43:52.446Z,78.54
2019-01-16T10:46:21.402Z,78.96
2019-01-16T10:48:59.313Z,78.44
2019-01-16T10:51:25.363Z,78.48
2019-01-16T10:54:07.698Z,78.15
2019-01-16T10:56:33.789Z,77.97
2019-01-16T10:59:05.842Z,78.58
2019-01-16T11:01:31.912Z,78.23
2019-01-16T11:04:13.921Z,78.17
2019-01-16T11:06:42.947Z,78.31
2019-01-16T11:09:13.415Z,77.70
2019-01-16T11:11:42.433Z,77.65
2019-01-16T11:14:26.808Z,77.18
2019-01-16T11:16:56.716Z,77.26
2019-01-16T11:19:25.932Z,76.95
2019-01-16T11:22:03.839Z,76.43
2019-01-16T11:24:38.941Z,76.98
2019-01-16T11:27:21.175Z,76.56
2019-01-16T11:29:56.215Z,75.98
2019-01-16T11:32:28.779Z,75.75
2019-01-16T11:35:03.405Z,76.55
2019-01-16T11:37:38.284Z,76.32
2019-01-16T11:40:10.291Z,76.40
2019-01-16T11:42:39.024Z,76.36
2019-01-16T11:45:08.045Z,75.98
2019-01-16T11:47:34.092Z,75.62
2019-01-16T11:50:09.016Z,75.85
2019-01-16T11:52:35.056Z,75.74
2019-01-16T11:55:07.206Z,75.37
2019-01-16T11:57:33.222Z,75.46
2019-01-16T11:59:59.275Z,75.04
2019-01-16T12:02:38.278Z,74.90
2019-01-16T12:05:07.647Z,74.78
2019-01-16T12:07:33.685Z,74.82
2019-01-16T12:09:59.723Z,75.04
2019-01-16T12:12:28.447Z,75.44
2019-01-16T12:15:12.346Z,75.34
2019-01-16T12:17:44.448Z,74.33
2019-01-16T12:20:17.378Z,74.86
2019-01-16T12:22:43.420Z,73.92
2019-01-16T12:25:09.710Z,74.11
2019-01-16T12:27:41.746Z,74.01
2019-01-16T12:30:28.300Z,73.95
2019-01-16T12:32:57.242Z,74.63
2019-01-16T12:35:31.863Z,75.14
2019-01-16T12:37:57.052Z,75.15
2019-01-16T12:40:25.990Z,75.00
2019-01-16T12:43:10.207Z,74.65
2019-01-16T12:45:51.249Z,74.02
2019-01-16T12:48:28.975Z,74.11
2019-01-16T12:50:55.042Z,74.38
2019-01-16T12:53:29.911Z,74.24
2019-01-16T12:55:55.943Z,74.69
2019-01-16T12:58:37.941Z,74.05
2019-01-16T13:01:16.189Z,74.33
2019-01-16T13:03:48.016Z,73.73
2019-01-16T13:06:19.746Z,73.77
2019-01-16T13:09:03.655Z,73.27
2019-01-16T13:11:29.699Z,73.61
2019-01-16T13:14:01.706Z,74.78
2019-01-16T13:16:39.633Z,74.03
2019-01-16T13:19:05.676Z,74.66
2019-01-16T13:21:47.942Z,74.47
2019-01-16T13:24:13.976Z,74.17
2019-01-16T13:26:43.136Z,74.20
2019-01-16T13:29:25.142Z,74.50
2019-01-16T13:31:51.168Z,74.65
2019-01-16T13:34:17.198Z,74.85
2019-01-16T13:36:43.231Z,74.61
2019-01-16T13:39:13.239Z,75.13
2019-01-16T13:41:45.186Z,75.17
2019-01-16T13:44:13.984Z,75.89
2019-01-16T13:46:46.046Z,75.96
2019-01-16T13:49:14.993Z,76.24
2019-01-16T13:51:46.293Z,76.92
2019-01-16T13:54:11.433Z,77.01
2019-01-16T13:56:52.594Z,77.28
2019-01-16T13:59:21.593Z,76.62
2019-01-16T14:01:53.458Z,76.39
2019-01-16T14:04:22.403Z,76.47
2019-01-16T14:06:57.225Z,76.46
2019-01-16T14:09:39.596Z,76.43
2019-01-16T14:12:20.881Z,75.41
2019-01-16T14:14:49.635Z,75.19
2019-01-16T14:17:33.411Z,74.92
2019-01-16T14:20:08.278Z,74.98
2019-01-16T14:22:34.300Z,75.09
2019-01-16T14:25:16.658Z,74.37
2019-01-16T14:27:54.752Z,75.07
2019-01-16T14:30:21.460Z,74.08
2019-01-16T14:32:47.525Z,74.42
2019-01-16T14:35:13.659Z,74.55
2019-01-16T14:37:51.770Z,74.48
2019-01-16T14:40:17.793Z,73.82
2019-01-16T14:42:46.850Z,74.25
2019-01-16T14:45:28.838Z,73.96
2019-01-16T14:48:00.965Z,73.55
2019-01-16T14:50:29.661Z,73.36
2019-01-16T14:52:55.697Z,73.51
2019-01-16T14:55:27.585Z,73.43
2019-01-16T14:57:56.276Z,73.50
2019-01-16T15:00:38.243Z,73.07
2019-01-16T15:03:09.986Z,73.25
2019-01-16T15:05:39.055Z,73.11
2019-01-16T15:08:20.270Z,72.91
2019-01-16T15:10:49.254Z,72.98
2019-01-16T15:13:20.989Z,72.93
2019-01-16T15:15:50.100Z,72.80
2019-01-16T15:18:32.270Z,72.83
2019-01-16T15:21:14.557Z,72.47
2019-01-16T15:23:56.864Z,72.51
2019-01-16T15:26:22.916Z,72.81
2019-01-16T15:28:48.944Z,72.34
2019-01-16T15:31:15.073Z,71.88
2019-01-16T15:33:47.108Z,72.24
2019-01-16T15:36:16.918Z,72.06
2019-01-16T15:38:48.863Z,72.09
2019-01-16T15:41:29.896Z,71.86
2019-01-16T15:43:55.994Z,71.85
2019-01-16T15:46:22.038Z,72.04
2019-01-16T15:49:00.287Z,72.03
2019-01-16T15:51:26.316Z,72.00
2019-01-16T15:53:52.348Z,72.12
2019-01-16T15:56:21.076Z,71.94
2019-01-16T15:58:47.106Z,71.67
2019-01-16T16:01:29.404Z,71.58
2019-01-16T16:03:55.681Z,71.50
2019-01-16T16:06:21.818Z,72.07
2019-01-16T16:08:50.255Z,72.03
2019-01-16T16:11:32.423Z,71.61
2019-01-16T16:14:04.193Z,71.33
2019-01-16T16:16:45.042Z,71.98
2019-01-16T16:19:22.697Z,72.03
2019-01-16T16:21:51.424Z,72.03
2019-01-16T16:24:29.798Z,71.90
2019-01-16T16:27:04.857Z,71.60
2019-01-16T16:29:39.667Z,71.34
2019-01-16T16:32:08.989Z,71.73
2019-01-16T16:34:46.832Z,71.59
2019-01-16T16:37:12.896Z,71.73
2019-01-16T16:39:47.740Z,71.72
2019-01-16T16:42:16.638Z,71.71
2019-01-16T16:44:42.687Z,71.50
2019-01-16T16:47:14.783Z,71.40
2019-01-16T16:49:40.839Z,71.00
2019-01-16T16:52:06.941Z,71.02
2019-01-16T16:54:35.942Z,70.55
2019-01-16T16:57:19.808Z,70.54
2019-01-16T17:00:03.970Z,71.16
2019-01-16T17:02:32.892Z,70.78
2019-01-16T17:05:11.074Z,70.54
2019-01-16T17:07:42.778Z,70.65
2019-01-16T17:10:12.139Z,70.56
2019-01-16T17:12:54.418Z,69.89
2019-01-16T17:15:20.479Z,69.74
2019-01-16T17:17:49.206Z,69.46
2019-01-16T17:20:21.547Z,69.63
2019-01-16T17:22:50.236Z,69.36
2019-01-16T17:25:18.968Z,68.96
2019-01-16T17:27:45.025Z,68.83
2019-01-16T17:30:32.261Z,68.88
2019-01-16T17:33:04.331Z,69.33
2019-01-16T17:35:30.360Z,69.29
2019-01-16T17:37:56.434Z,69.21
2019-01-16T17:40:22.469Z,68.00
2019-01-16T17:42:48.536Z,67.96
2019-01-16T17:45:23.659Z,68.60
2019-01-16T17:47:58.362Z,68.40
2019-01-16T17:50:33.122Z,68.61
2019-01-16T17:53:11.006Z,69.38
2019-01-16T17:55:48.692Z,69.23
2019-01-16T17:58:17.693Z,68.91
2019-01-16T18:00:43.745Z,68.80
2019-01-16T18:03:12.545Z,68.33
2019-01-16T18:05:44.529Z,68.77
2019-01-16T18:08:22.232Z,69.10
2019-01-16T18:10:57.309Z,68.87
2019-01-16T18:13:29.268Z,68.66
2019-01-16T18:16:11.484Z,68.47
2019-01-16T18:18:46.528Z,68.48
2019-01-16T18:21:12.643Z,68.92
2019-01-16T18:23:41.432Z,68.21
2019-01-16T18:26:07.534Z,68.04
2019-01-16T18:28:39.405Z,67.62
2019-01-16T18:31:08.426Z,67.91
2019-01-16T18:33:37.146Z,68.10
2019-01-16T18:36:09.001Z,67.59
2019-01-16T18:38:47.180Z,66.99
2019-01-16T18:41:15.959Z,66.77
2019-01-16T18:43:50.678Z,66.70
2019-01-16T18:46:19.639Z,66.98
2019-01-16T18:48:57.825Z,67.21
2019-01-16T18:51:40.013Z,66.75
2019-01-16T18:54:06.187Z,67.19
2019-01-16T18:56:38.233Z,66.81
2019-01-16T18:59:12.924Z,66.49
2019-01-16T19:01:54.930Z,65.77
2019-01-16T19:04:36.878Z,65.96
2019-01-16T19:07:08.938Z,66.52
2019-01-16T19:09:50.981Z,66.50
2019-01-16T19:12:17.018Z,66.19
2019-01-16T19:14:43.045Z,66.95
2019-01-16T19:17:20.860Z,66.67
2019-01-16T19:19:59.017Z,66.88
2019-01-16T19:22:25.086Z,66.60
2019-01-16T19:24:51.134Z,67.05
2019-01-16T19:27:17.179Z,67.48
2019-01-16T19:29:43.231Z,67.26
2019-01-16T19:32:09.263Z,67.60
2019-01-16T19:34:35.342Z,67.28
2019-01-16T19:37:04.035Z,67.46
2019-01-16T19:39:38.607Z,67.52
2019-01-16T19:42:10.336Z,67.73
2019-01-16T19:44:45.364Z,67.62
2019-01-16T19:47:27.448Z,67.40
2019-01-16T19:49:53.529Z,67.53
2019-01-16T19:52:25.418Z,67.18
2019-01-16T19:55:07.494Z,67.70
2019-01-16T19:57:49.856Z,67.76
2019-01-16T20:00:30.509Z,67.51
2019-01-16T20:02:56.614Z,67.39
2019-01-16T20:05:31.427Z,67.74
2019-01-16T20:08:13.797Z,67.95
2019-01-16T20:10:39.873Z,67.44
2019-01-16T20:13:08.845Z,67.76
2019-01-16T20:15:50.870Z,67.68
2019-01-16T20:18:16.919Z,67.92
2019-01-16T20:20:59.165Z,67.58
2019-01-16T20:23:41.237Z,68.01
2019-01-16T20:26:10.080Z,68.56
2019-01-16T20:28:54.204Z,68.60
2019-01-16T20:31:36.180Z,67.76
2019-01-16T20:34:05.190Z,67.97
2019-01-16T20:36:31.329Z,67.90
2019-01-16T20:39:03.507Z,67.28
2019-01-16T20:41:35.452Z,67.30
2019-01-16T20:44:04.135Z,67.18
2019-01-16T20:46:42.057Z,67.85
2019-01-16T20:49:27.522Z,67.04
2019-01-16T20:52:08.672Z,68.15
2019-01-16T20:54:34.712Z,67.91
2019-01-16T20:57:00.739Z,67.78
2019-01-16T20:59:32.500Z,67.59
2019-01-16T21:02:01.451Z,67.48
2019-01-16T21:04:30.519Z,67.15
2019-01-16T21:07:02.504Z,67.67
2019-01-16T21:09:28.566Z,67.10
2019-01-16T21:12:04.963Z,68.29
2019-01-16T21:14:40.038Z,67.50
2019-01-16T21:17:09.129Z,67.97
2019-01-16T21:19:37.795Z,67.91
2019-01-16T21:22:03.866Z,68.03
2019-01-16T21:24:38.781Z,67.50
2019-01-16T21:27:10.627Z,67.55
2019-01-16T21:29:36.660Z,67.92
2019-01-16T21:32:26.328Z,67.32
2019-01-16T21:34:47.620Z,67.47
2019-01-16T21:37:16.413Z,67.53
2019-01-16T21:39:48.396Z,68.27
2019-01-16T21:42:14.444Z,67.54
2019-01-16T21:44:52.660Z,67.56
2019-01-16T21:47:29.530Z,67.58
2019-01-16T21:50:10.443Z,67.48
2019-01-16T21:52:45.597Z,67.18
2019-01-16T21:55:23.674Z,66.52
2019-01-16T21:57:55.791Z,66.96
2019-01-16T22:00:21.840Z,67.38
2019-01-16T22:02:54.014Z,67.60
2019-01-16T22:05:22.711Z,67.86
2019-01-16T22:07:57.718Z,67.78
2019-01-16T22:10:29.473Z,67.08
2019-01-16T22:13:11.523Z,66.77
2019-01-16T22:15:40.239Z,66.84
2019-01-16T22:18:06.360Z,66.83
2019-01-16T22:20:38.364Z,66.62
2019-01-16T22:23:04.416Z,66.36
2019-01-16T22:25:36.409Z,66.97
2019-01-16T22:28:02.472Z,67.36
2019-01-16T22:30:34.296Z,67.49
2019-01-16T22:33:06.420Z,67.85
2019-01-16T22:35:38.515Z,67.98
2019-01-16T22:38:20.505Z,66.98
2019-01-16T22:40:46.538Z,67.26
2019-01-16T22:43:15.060Z,67.48
2019-01-16T22:45:41.106Z,68.01
2019-01-16T22:48:19.047Z,67.99
2019-01-16T22:50:47.982Z,67.78
2019-01-16T22:53:14.010Z,67.83
2019-01-16T22:55:40.065Z,67.78
2019-01-16T22:58:08.877Z,67.32
2019-01-16T23:00:50.174Z,67.64
2019-01-16T23:03:27.907Z,67.77
2019-01-16T23:05:59.665Z,67.06
2019-01-16T23:08:28.264Z,67.80
2019-01-16T23:10:57.276Z,67.30
2019-01-16T23:13:23.313Z,67.83
2019-01-16T23:16:05.518Z,68.24
2019-01-16T23:18:37.613Z,68.02
2019-01-16T23:21:06.633Z,68.43
2019-01-16T23:23:35.624Z,67.60
2019-01-16T23:26:01.667Z,68.51
2019-01-16T23:28:33.797Z,68.42
2019-01-16T23:30:59.813Z,68.22
2019-01-16T23:33:31.712Z,68.30
2019-01-16T23:36:03.590Z,67.73
2019-01-16T23:38:47.464Z,67.65
2019-01-16T23:41:22.402Z,67.52
2019-01-16T23:44:03.430Z,67.92
2019-01-16T23:46:38.412Z,67.86
2019-01-16T23:49:19.279Z,67.94
2019-01-16T23:51:57.340Z,67.75
2019-01-16T23:54:38.631Z,67.73
2019-01-16T23:57:04.668Z,67.43
2019-01-16T23:59:39.675Z,67.71
